Time;durP1;ratioP1;P1;durP2;ratioP2;P2;SDS_P1;SDS_P2;PMS_P1;PMS_P2;Temp;Humidity;BMP_temperature;BMP_pressure;BME280_temperature;BME280_humidity;BME280_pressure;Samples;Min_cycle;Max_cycle;Signal;HPM_P1;HPM_P2
2023/03/10 00:02:04;;;;;;;0.50;0.50;;;1.40;99.90;;;;;;6217001;23;20282;-75
2023/03/10 00:04:30;;;;;;;0.50;0.50;;;1.30;99.90;;;;;;6215585;23;20453;-75
2023/03/10 00:06:55;;;;;;;0.40;0.40;;;1.40;99.90;;;;;;6217448;23;20373;-75
2023/03/10 00:09:21;;;;;;;0.52;0.52;;;1.30;99.90;;;;;;6217442;23;20441;-75
2023/03/10 00:11:47;;;;;;;0.50;0.50;;;1.50;99.90;;;;;;6217387;23;20096;-75
2023/03/10 00:14:14;;;;;;;0.50;0.50;;;1.30;99.90;;;;;;6215400;23;20019;-75
2023/03/10 00:16:40;;;;;;;0.60;0.60;;;1.40;99.90;;;;;;6190296;23;20083;-75
2023/03/10 00:19:06;;;;;;;0.60;0.60;;;1.50;99.90;;;;;;6217257;23;20053;-75
2023/03/10 00:21:34;;;;;;;0.70;0.70;;;1.40;99.90;;;;;;6215845;23;20013;-75
2023/03/10 00:24:00;;;;;;;0.52;0.52;;;1.50;99.90;;;;;;6217301;23;20075;-74
2023/03/10 00:26:27;;;;;;;0.60;0.60;;;1.40;99.90;;;;;;6215282;23;20446;-75
2023/03/10 00:28:54;;;;;;;0.60;0.60;;;1.30;99.90;;;;;;6217140;23;20022;-75
2023/03/10 00:31:22;;;;;;;0.50;0.50;;;1.50;99.90;;;;;;6215306;23;20024;-75
2023/03/10 00:33:49;;;;;;;0.50;0.50;;;1.40;99.90;;;;;;6215360;23;20004;-75
2023/03/10 00:36:20;;;;;;;0.50;0.50;;;1.50;99.90;;;;;;6215332;23;20004;-75
2023/03/10 00:38:47;;;;;;;0.60;0.60;;;1.40;99.90;;;;;;6216666;23;20016;-74
2023/03/10 00:41:15;;;;;;;0.55;0.55;;;1.30;99.90;;;;;;6215226;23;20009;-74
2023/03/10 00:43:42;;;;;;;0.50;0.50;;;1.40;99.90;;;;;;6215152;23;20008;-75
2023/03/10 00:46:08;;;;;;;0.50;0.50;;;1.20;99.90;;;;;;6216802;23;20434;-75
2023/03/10 00:48:35;;;;;;;0.40;0.40;;;1.40;99.90;;;;;;6216917;23;20040;-75
2023/03/10 00:51:00;;;;;;;0.50;0.50;;;1.40;99.90;;;;;;6217093;23;20036;-75
2023/03/10 00:53:27;;;;;;;0.55;0.55;;;1.40;99.90;;;;;;6214810;23;20437;-75
2023/03/10 00:56:02;;;;;;;0.60;0.60;;;1.30;99.90;;;;;;6216705;23;20087;-75
2023/03/10 00:58:29;;;;;;;0.60;0.60;;;1.30;99.90;;;;;;6214925;23;20475;-75
2023/03/10 01:00:54;;;;;;;0.70;0.70;;;1.30;99.90;;;;;;6189823;23;20015;-75
2023/03/10 01:03:21;;;;;;;0.45;0.45;;;1.50;99.90;;;;;;6214902;23;20373;-75
2023/03/10 01:05:49;;;;;;;0.50;0.50;;;1.40;99.90;;;;;;6214891;23;20050;-75
2023/03/10 01:08:15;;;;;;;0.50;0.50;;;1.40;99.90;;;;;;6216689;23;20016;-75
2023/03/10 01:10:41;;;;;;;0.50;0.50;;;1.30;99.90;;;;;;6216237;23;20043;-75
2023/03/10 01:13:07;;;;;;;0.60;0.60;;;1.20;99.90;;;;;;6216740;23;20441;-75
2023/03/10 01:15:32;;;;;;;0.60;0.60;;;1.40;99.90;;;;;;6214835;23;20044;-75
2023/03/10 01:18:02;;;;;;;0.50;0.50;;;1.50;99.90;;;;;;6216628;23;20009;-75
2023/03/10 01:20:29;;;;;;;0.60;0.60;;;1.40;99.90;;;;;;6214813;23;20016;-75
2023/03/10 01:22:55;;;;;;;0.47;0.47;;;1.40;99.90;;;;;;6214857;23;20091;-75
2023/03/10 01:25:20;;;;;;;0.60;0.60;;;1.30;99.90;;;;;;6214872;23;20338;-75
2023/03/10 01:27:46;;;;;;;0.50;0.50;;;1.40;99.90;;;;;;6216645;23;20011;-75
2023/03/10 01:30:12;;;;;;;0.50;0.50;;;1.40;99.90;;;;;;6214890;23;20012;-75
2023/03/10 01:32:39;;;;;;;0.40;0.40;;;1.40;99.90;;;;;;6216375;23;20334;-75
2023/03/10 01:35:05;;;;;;;0.50;0.50;;;1.40;99.90;;;;;;6216302;23;20013;-75
2023/03/10 01:37:31;;;;;;;0.40;0.40;;;1.30;99.90;;;;;;6216791;23;20058;-75
2023/03/10 01:39:56;;;;;;;0.45;0.45;;;1.60;99.90;;;;;;6240568;23;20042;-75
2023/03/10 01:42:22;;;;;;;0.60;0.60;;;1.40;99.90;;;;;;6216520;23;20112;-75
2023/03/10 01:45:28;;;;;;;0.57;0.57;;;1.50;99.90;;;;;;6214562;23;20013;-74
2023/03/10 01:47:54;;;;;;;0.50;0.50;;;1.40;99.90;;;;;;6215886;23;20013;-75
2023/03/10 01:50:20;;;;;;;0.40;0.40;;;1.50;99.90;;;;;;6214415;23;20009;-74
2023/03/10 01:52:55;;;;;;;0.50;0.50;;;1.50;99.90;;;;;;6214401;23;20008;-74
2023/03/10 01:55:25;;;;;;;0.50;0.50;;;1.40;99.90;;;;;;6214870;23;20016;-75
2023/03/10 01:57:53;;;;;;;0.57;0.57;;;1.50;99.90;;;;;;6214438;23;20013;-75
2023/03/10 02:00:23;;;;;;;0.55;0.55;;;1.40;99.90;;;;;;6214551;23;20012;-74
2023/03/10 02:03:23;;;;;;;0.50;0.50;;;1.40;99.90;;;;;;6189347;23;20091;-74
2023/03/10 02:05:55;;;;;;;0.50;0.50;;;1.50;99.90;;;;;;6214229;23;20338;-75
2023/03/10 02:08:23;;;;;;;0.55;0.55;;;1.50;99.90;;;;;;6214343;23;20040;-75
2023/03/10 02:10:49;;;;;;;0.50;0.50;;;1.50;99.90;;;;;;6215905;23;20013;-75
2023/03/10 02:13:15;;;;;;;0.50;0.50;;;1.50;99.90;;;;;;6214376;23;20107;-75
2023/03/10 02:15:41;;;;;;;0.50;0.50;;;1.60;99.90;;;;;;6215876;23;20464;-75
2023/03/10 02:18:11;;;;;;;0.57;0.57;;;1.60;99.90;;;;;;6216287;23;20087;-76
2023/03/10 02:21:06;;;;;;;0.50;0.50;;;1.50;99.90;;;;;;6214388;23;20043;-75
2023/03/10 02:23:51;;;;;;;0.60;0.60;;;1.50;99.90;;;;;;6171809;23;20066;-75
2023/03/10 02:26:46;;;;;;;0.50;0.50;;;1.50;99.90;;;;;;6214368;23;20429;-75
2023/03/10 02:29:22;;;;;;;0.60;0.60;;;1.60;99.90;;;;;;6216172;23;20040;-75
2023/03/10 02:31:49;;;;;;;0.52;0.52;;;1.60;99.90;;;;;;6214370;23;20437;-75
2023/03/10 02:34:14;;;;;;;0.60;0.60;;;1.40;99.90;;;;;;6239963;23;20027;-76
2023/03/10 02:36:40;;;;;;;0.60;0.60;;;1.60;99.90;;;;;;6214594;23;20013;-75
2023/03/10 02:39:06;;;;;;;0.52;0.52;;;1.70;99.90;;;;;;6214336;23;20024;-75
2023/03/10 02:41:35;;;;;;;0.70;0.70;;;1.50;99.90;;;;;;6215209;23;20096;-76
2023/03/10 02:44:05;;;;;;;0.60;0.60;;;1.70;99.90;;;;;;6214349;23;20013;-76
2023/03/10 02:46:31;;;;;;;0.60;0.60;;;1.70;99.90;;;;;;6214554;23;20469;-75
2023/03/10 02:49:02;;;;;;;0.50;0.50;;;1.50;99.90;;;;;;6214152;23;20013;-75
2023/03/10 02:51:34;;;;;;;0.55;0.55;;;1.70;99.90;;;;;;6214314;23;20196;-75
2023/03/10 02:54:00;;;;;;;0.50;0.50;;;1.70;99.90;;;;;;6214077;23;20079;-75
2023/03/10 02:56:27;;;;;;;0.50;0.50;;;1.70;99.90;;;;;;6216089;23;20012;-75
2023/03/10 02:58:53;;;;;;;0.57;0.57;;;1.60;99.90;;;;;;6214164;23;20093;-75
2023/03/10 03:01:18;;;;;;;0.50;0.50;;;1.50;99.90;;;;;;6214054;23;20056;-76
2023/03/10 03:03:44;;;;;;;0.50;0.50;;;1.70;99.90;;;;;;6215934;23;20040;-75
2023/03/10 03:06:11;;;;;;;0.50;0.50;;;1.70;99.90;;;;;;6214168;23;20016;-75
2023/03/10 03:08:37;;;;;;;0.60;0.60;;;1.70;99.90;;;;;;6215809;23;20044;-75
2023/03/10 03:11:03;;;;;;;0.60;0.60;;;1.60;99.90;;;;;;6214074;23;20017;-75
2023/03/10 03:13:29;;;;;;;0.50;0.50;;;1.50;99.90;;;;;;6214099;23;20089;-75
2023/03/10 03:15:54;;;;;;;0.60;0.60;;;1.60;99.90;;;;;;6214112;23;20051;-75
2023/03/10 03:18:20;;;;;;;0.50;0.50;;;1.60;99.90;;;;;;6216754;23;20084;-75
2023/03/10 03:20:46;;;;;;;0.50;0.50;;;1.50;99.90;;;;;;6215889;23;20013;-75
2023/03/10 03:23:12;;;;;;;0.50;0.50;;;1.60;99.90;;;;;;6216077;23;20099;-75
2023/03/10 03:25:40;;;;;;;0.50;0.50;;;1.50;99.90;;;;;;6215866;23;20392;-76
2023/03/10 03:28:08;;;;;;;0.50;0.50;;;1.70;99.90;;;;;;6217248;23;20438;-75
2023/03/10 03:30:35;;;;;;;0.55;0.55;;;1.70;99.90;;;;;;6241138;23;20044;-75
2023/03/10 03:33:03;;;;;;;0.50;0.50;;;1.50;99.90;;;;;;6215776;23;20013;-75
2023/03/10 03:35:31;;;;;;;0.50;0.50;;;1.50;99.90;;;;;;6217760;23;20012;-75
2023/03/10 03:37:57;;;;;;;0.60;0.60;;;1.60;99.90;;;;;;6217821;23;20012;-75
2023/03/10 03:40:25;;;;;;;0.60;0.60;;;1.50;99.90;;;;;;6215753;23;20048;-75
2023/03/10 03:42:52;;;;;;;0.50;0.50;;;1.50;99.90;;;;;;6215726;23;20021;-75
2023/03/10 03:45:22;;;;;;;0.60;0.60;;;1.70;99.90;;;;;;6217580;23;20059;-75
2023/03/10 03:47:48;;;;;;;0.63;0.63;;;1.50;99.90;;;;;;6217506;23;20071;-75
2023/03/10 03:50:15;;;;;;;0.60;0.60;;;1.60;99.90;;;;;;6217432;23;20438;-75
2023/03/10 03:52:41;;;;;;;0.52;0.52;;;1.70;99.90;;;;;;6215483;23;20019;-74
2023/03/10 03:55:08;;;;;;;0.40;0.40;;;1.70;99.90;;;;;;6217505;23;20044;-75
2023/03/10 03:57:34;;;;;;;0.60;0.60;;;1.50;99.90;;;;;;6217294;23;20334;-75
2023/03/10 04:00:00;;;;;;;0.52;0.52;;;1.50;99.90;;;;;;6215555;23;20016;-76
2023/03/10 04:02:25;;;;;;;0.50;0.50;;;1.60;99.90;;;;;;6217312;23;20019;-75
2023/03/10 04:04:54;;;;;;;0.60;0.60;;;1.40;99.90;;;;;;6217418;23;20005;-75
2023/03/10 04:07:20;;;;;;;0.40;0.40;;;1.70;99.90;;;;;;6217374;23;20008;-75
2023/03/10 04:09:45;;;;;;;0.50;0.50;;;1.70;99.90;;;;;;6216433;23;20051;-75
2023/03/10 04:12:11;;;;;;;0.60;0.60;;;1.50;99.90;;;;;;6215366;23;20485;-75
2023/03/10 04:14:37;;;;;;;0.47;0.47;;;1.60;99.90;;;;;;6217326;23;20019;-75
2023/03/10 04:17:03;;;;;;;0.43;0.43;;;1.60;99.90;;;;;;6215467;23;20092;-75
2023/03/10 04:19:29;;;;;;;0.55;0.55;;;1.50;99.90;;;;;;6217261;23;20017;-75
2023/03/10 04:21:54;;;;;;;0.50;0.50;;;1.50;99.90;;;;;;6217011;23;20005;-75
2023/03/10 04:24:20;;;;;;;0.40;0.40;;;1.50;99.90;;;;;;6217198;23;20008;-75
2023/03/10 04:26:46;;;;;;;0.50;0.50;;;1.60;99.90;;;;;;6215415;23;20016;-75
2023/03/10 04:29:12;;;;;;;0.43;0.43;;;1.70;99.90;;;;;;6240405;23;20342;-75
2023/03/10 04:31:38;;;;;;;0.50;0.50;;;1.50;99.90;;;;;;6215247;23;20064;-75
2023/03/10 04:34:04;;;;;;;0.50;0.50;;;1.50;99.90;;;;;;6216718;23;20528;-75
2023/03/10 04:36:30;;;;;;;0.50;0.50;;;1.60;99.90;;;;;;6215262;23;20090;-75
2023/03/10 04:38:55;;;;;;;0.70;0.70;;;1.70;99.90;;;;;;6217031;23;20016;-75
2023/03/10 04:41:21;;;;;;;0.50;0.50;;;1.60;99.90;;;;;;6217078;23;20099;-75
2023/03/10 04:43:47;;;;;;;0.50;0.50;;;1.60;99.90;;;;;;6216765;23;20016;-75
2023/03/10 04:46:12;;;;;;;0.50;0.50;;;1.60;99.90;;;;;;6217178;23;20020;-75
2023/03/10 04:48:39;;;;;;;0.50;0.50;;;1.50;99.90;;;;;;6217086;23;20364;-75
2023/03/10 04:51:07;;;;;;;0.40;0.40;;;1.60;99.90;;;;;;6217220;23;20330;-76
2023/03/10 04:53:34;;;;;;;0.50;0.50;;;1.40;99.90;;;;;;6215261;23;20031;-75
2023/03/10 04:56:01;;;;;;;0.50;0.50;;;1.60;99.90;;;;;;6215252;23;20095;-76
2023/03/10 04:58:27;;;;;;;0.60;0.60;;;1.40;99.90;;;;;;6217225;23;20012;-75
2023/03/10 05:00:53;;;;;;;0.50;0.50;;;1.60;99.90;;;;;;6191044;23;20313;-75
2023/03/10 05:03:18;;;;;;;0.50;0.50;;;1.50;99.90;;;;;;6215136;23;20055;-75
2023/03/10 05:05:44;;;;;;;0.47;0.47;;;1.40;99.90;;;;;;6214957;23;20008;-75
2023/03/10 05:08:10;;;;;;;0.60;0.60;;;1.40;99.90;;;;;;6216816;23;20034;-75
2023/03/10 05:10:39;;;;;;;0.50;0.50;;;1.60;99.90;;;;;;6214990;23;20013;-75
2023/03/10 05:13:05;;;;;;;0.60;0.60;;;1.40;99.90;;;;;;6216775;23;20005;-75
2023/03/10 05:15:34;;;;;;;0.50;0.50;;;1.60;99.90;;;;;;6216660;23;20044;-75
2023/03/10 05:17:59;;;;;;;0.50;0.50;;;1.40;99.90;;;;;;6216600;23;20063;-75
2023/03/10 05:20:25;;;;;;;0.50;0.50;;;1.50;99.90;;;;;;6214991;23;20063;-75
2023/03/10 05:22:51;;;;;;;0.60;0.60;;;1.60;99.90;;;;;;6240561;23;20016;-76
2023/03/10 05:25:16;;;;;;;0.50;0.50;;;1.50;99.90;;;;;;6214966;23;20018;-75
2023/03/10 05:27:42;;;;;;;0.50;0.50;;;1.50;99.90;;;;;;6214913;23;20094;-75
2023/03/10 05:30:10;;;;;;;0.60;0.60;;;1.60;99.90;;;;;;6240344;23;20338;-75
2023/03/10 05:32:36;;;;;;;0.57;0.57;;;1.60;99.90;;;;;;6214755;23;20071;-75
2023/03/10 05:35:03;;;;;;;0.50;0.50;;;1.50;99.90;;;;;;6189693;23;20012;-75
2023/03/10 05:37:29;;;;;;;0.50;0.50;;;1.60;99.90;;;;;;6214738;23;20450;-75
2023/03/10 05:39:54;;;;;;;0.60;0.60;;;1.50;99.90;;;;;;6214757;23;20012;-76
2023/03/10 05:42:21;;;;;;;0.60;0.60;;;1.60;99.90;;;;;;6189135;23;20393;-76
2023/03/10 05:44:47;;;;;;;0.60;0.60;;;1.50;99.90;;;;;;6214584;23;20338;-76
2023/03/10 05:47:13;;;;;;;0.60;0.60;;;1.40;99.90;;;;;;6189505;23;20009;-76
2023/03/10 05:49:39;;;;;;;0.68;0.68;;;1.40;99.90;;;;;;6216101;23;20450;-76
2023/03/10 05:52:05;;;;;;;0.60;0.60;;;1.60;99.90;;;;;;6215128;23;20012;-76
2023/03/10 05:54:31;;;;;;;0.60;0.60;;;1.60;99.90;;;;;;6214532;23;20016;-76
2023/03/10 05:56:57;;;;;;;0.60;0.60;;;1.50;99.90;;;;;;6214513;23;20019;-76
2023/03/10 05:59:23;;;;;;;0.60;0.60;;;1.50;99.90;;;;;;6214540;23;20012;-76
2023/03/10 06:01:48;;;;;;;0.70;0.70;;;1.60;99.90;;;;;;6214740;23;20438;-77
2023/03/10 06:04:14;;;;;;;0.60;0.60;;;1.50;99.90;;;;;;6214932;23;20373;-76
2023/03/10 06:06:40;;;;;;;0.70;0.70;;;1.50;99.90;;;;;;6216171;23;20089;-75
2023/03/10 06:09:06;;;;;;;0.70;0.70;;;1.50;99.90;;;;;;6216323;23;20498;-76
2023/03/10 06:11:32;;;;;;;0.60;0.60;;;1.40;99.90;;;;;;6214491;23;20008;-77
2023/03/10 06:13:58;;;;;;;0.70;0.70;;;1.30;99.90;;;;;;6214471;23;20050;-75
2023/03/10 06:16:23;;;;;;;0.60;0.60;;;1.30;99.90;;;;;;6214408;23;20395;-76
2023/03/10 06:18:53;;;;;;;0.70;0.70;;;1.40;99.90;;;;;;6214462;23;20020;-76
2023/03/10 06:21:19;;;;;;;0.60;0.60;;;1.40;99.90;;;;;;6216252;23;20103;-77
2023/03/10 06:23:44;;;;;;;0.60;0.60;;;1.40;99.90;;;;;;6214455;23;20040;-76
2023/03/10 06:26:12;;;;;;;0.70;0.70;;;1.50;99.90;;;;;;6214344;23;20020;-76
2023/03/10 06:28:40;;;;;;;0.70;0.70;;;1.30;99.90;;;;;;6216107;23;20020;-77
2023/03/10 06:31:18;;;;;;;0.70;0.70;;;1.40;99.90;;;;;;6216264;23;20009;-76
2023/03/10 06:33:44;;;;;;;0.73;0.70;;;1.40;99.90;;;;;;6214512;23;20043;-76
2023/03/10 06:36:12;;;;;;;0.70;0.70;;;1.30;99.90;;;;;;6214403;23;20016;-77
2023/03/10 06:38:38;;;;;;;0.68;0.68;;;1.50;99.90;;;;;;6214448;23;20309;-75
2023/03/10 06:41:04;;;;;;;0.60;0.60;;;1.30;99.90;;;;;;6214781;23;20063;-77
2023/03/10 06:43:32;;;;;;;0.60;0.60;;;1.20;99.90;;;;;;6216495;23;20036;-76
2023/03/10 06:45:57;;;;;;;0.70;0.70;;;1.40;99.90;;;;;;6214230;23;20043;-76
2023/03/10 06:48:23;;;;;;;0.70;0.70;;;1.40;99.90;;;;;;6189008;23;20039;-76
2023/03/10 06:50:50;;;;;;;0.70;0.70;;;1.30;99.90;;;;;;6215721;23;20019;-77
2023/03/10 06:53:18;;;;;;;0.60;0.60;;;1.50;99.90;;;;;;6214904;23;20083;-76
2023/03/10 06:55:44;;;;;;;0.70;0.70;;;1.40;99.90;;;;;;6218105;23;20023;-77
2023/03/10 06:58:10;;;;;;;0.60;0.60;;;1.60;99.90;;;;;;6218239;23;20043;-77
2023/03/10 07:00:37;;;;;;;0.68;0.68;;;1.40;99.90;;;;;;6216261;23;20012;-77
2023/03/10 07:03:03;;;;;;;0.70;0.70;;;1.30;99.90;;;;;;6216335;23;20384;-77
2023/03/10 07:05:29;;;;;;;0.70;0.70;;;1.60;99.90;;;;;;6217947;23;20091;-77
2023/03/10 07:07:55;;;;;;;0.63;0.63;;;1.40;99.90;;;;;;6216295;23;20016;-78
2023/03/10 07:10:21;;;;;;;0.70;0.70;;;1.60;99.90;;;;;;6216119;23;20446;-77
2023/03/10 07:12:53;;;;;;;0.70;0.70;;;1.60;99.90;;;;;;6216425;23;20011;-77
2023/03/10 07:15:20;;;;;;;0.70;0.70;;;1.60;99.90;;;;;;6190998;23;20047;-77
2023/03/10 07:17:46;;;;;;;0.68;0.68;;;1.60;99.90;;;;;;6215964;23;20051;-79
2023/03/10 07:20:12;;;;;;;0.63;0.63;;;1.70;99.90;;;;;;6215939;23;20024;-79
2023/03/10 07:22:38;;;;;;;0.70;0.70;;;1.60;99.90;;;;;;6217986;23;20346;-79
2023/03/10 07:25:04;;;;;;;0.50;0.50;;;1.80;99.90;;;;;;6217445;23;20441;-78
2023/03/10 07:27:30;;;;;;;0.60;0.60;;;1.50;99.90;;;;;;6217723;23;20008;-73
2023/03/10 07:29:56;;;;;;;0.50;0.50;;;1.60;99.90;;;;;;6215878;23;20381;-74
2023/03/10 07:32:21;;;;;;;0.60;0.60;;;1.50;99.90;;;;;;6217416;23;20332;-73
2023/03/10 07:34:49;;;;;;;0.60;0.60;;;1.70;99.90;;;;;;6215883;23;20058;-73
2023/03/10 07:37:15;;;;;;;0.60;0.60;;;1.70;99.90;;;;;;6217743;23;20016;-73
2023/03/10 07:39:41;;;;;;;0.60;0.60;;;1.60;99.90;;;;;;6217685;23;20005;-74
2023/03/10 07:42:07;;;;;;;0.65;0.65;;;1.70;99.90;;;;;;6215811;23;20013;-74
2023/03/10 07:44:32;;;;;;;0.57;0.57;;;1.60;99.90;;;;;;6215756;23;20434;-75
2023/03/10 07:46:58;;;;;;;0.50;0.50;;;1.80;99.90;;;;;;6241275;23;20008;-71
2023/03/10 07:49:23;;;;;;;0.50;0.50;;;1.60;99.90;;;;;;6217468;23;20020;-73
2023/03/10 07:51:49;;;;;;;0.50;0.50;;;1.70;99.90;;;;;;6215668;23;20082;-73
2023/03/10 07:54:15;;;;;;;0.40;0.40;;;1.80;99.90;;;;;;6215488;23;20013;-73
2023/03/10 07:56:40;;;;;;;0.57;0.57;;;1.60;99.90;;;;;;6215671;23;20012;-73
2023/03/10 07:59:07;;;;;;;0.50;0.50;;;1.60;99.90;;;;;;6215586;23;20075;-73
2023/03/10 08:01:33;;;;;;;0.60;0.60;;;1.60;99.90;;;;;;6217175;23;20024;-73
2023/03/10 08:03:58;;;;;;;0.50;0.50;;;1.90;99.90;;;;;;6215346;23;20012;-69
2023/03/10 08:06:26;;;;;;;0.57;0.57;;;1.70;99.90;;;;;;6217359;23;20008;-69
2023/03/10 08:08:53;;;;;;;0.50;0.50;;;1.80;99.90;;;;;;6217664;23;20013;-69
2023/03/10 08:11:20;;;;;;;0.50;0.50;;;1.80;99.90;;;;;;6217564;23;20012;-69
2023/03/10 08:13:46;;;;;;;0.50;0.50;;;1.80;99.90;;;;;;6217110;23;20084;-69
2023/03/10 08:16:17;;;;;;;0.50;0.50;;;2.10;99.90;;;;;;6217561;23;20040;-69
2023/03/10 08:18:43;;;;;;;0.52;0.52;;;2.10;99.90;;;;;;6215697;23;20063;-69
2023/03/10 08:21:10;;;;;;;0.50;0.50;;;2.10;99.90;;;;;;6215409;23;20016;-70
2023/03/10 08:23:36;;;;;;;0.43;0.43;;;1.90;99.90;;;;;;6215486;23;20021;-69
2023/03/10 08:26:05;;;;;;;0.50;0.50;;;2.00;99.90;;;;;;6190327;23;20044;-70
2023/03/10 08:28:32;;;;;;;0.50;0.50;;;1.90;99.90;;;;;;6215200;23;20044;-69
2023/03/10 08:30:58;;;;;;;0.50;0.50;;;2.10;99.90;;;;;;6190212;23;20020;-69
2023/03/10 08:33:27;;;;;;;0.50;0.50;;;2.00;99.90;;;;;;6215169;23;20019;-70
2023/03/10 08:36:24;;;;;;;0.60;0.60;;;2.10;99.90;;;;;;6190284;23;20091;-70
2023/03/10 08:38:52;;;;;;;0.52;0.52;;;2.20;99.90;;;;;;6198944;23;20016;-70
2023/03/10 08:41:24;;;;;;;0.50;0.50;;;2.20;99.90;;;;;;6215167;23;20023;-70
2023/03/10 08:43:52;;;;;;;0.65;0.65;;;2.10;99.90;;;;;;6217121;23;20326;-69
2023/03/10 08:46:19;;;;;;;0.52;0.52;;;2.10;99.90;;;;;;6215091;23;20350;-70
2023/03/10 08:48:46;;;;;;;0.60;0.60;;;2.00;99.90;;;;;;6216870;23;20016;-70
2023/03/10 08:51:12;;;;;;;0.60;0.60;;;2.10;99.90;;;;;;6215075;23;20094;-69
2023/03/10 08:53:38;;;;;;;0.45;0.45;;;2.00;99.90;;;;;;6215101;23;20088;-70
2023/03/10 08:56:04;;;;;;;0.47;0.47;;;2.20;99.90;;;;;;6215022;23;20099;-70
2023/03/10 08:58:30;;;;;;;0.50;0.50;;;2.20;99.90;;;;;;6216953;23;20121;-69
2023/03/10 09:00:56;;;;;;;0.40;0.40;;;2.10;99.90;;;;;;6190002;23;20020;-69
2023/03/10 09:03:22;;;;;;;0.50;0.50;;;2.20;99.90;;;;;;6216522;23;20158;-70
2023/03/10 09:05:48;;;;;;;0.50;0.50;;;2.20;99.90;;;;;;6216573;23;20009;-69
2023/03/10 09:08:14;;;;;;;0.50;0.50;;;2.10;99.90;;;;;;6216640;23;20027;-74
2023/03/10 09:10:41;;;;;;;0.50;0.50;;;2.20;99.90;;;;;;6216830;23;20004;-73
2023/03/10 09:13:07;;;;;;;0.50;0.50;;;2.10;99.90;;;;;;6216391;23;20021;-73
2023/03/10 09:15:33;;;;;;;0.60;0.60;;;2.10;99.90;;;;;;6216611;23;20032;-73
2023/03/10 09:18:00;;;;;;;0.57;0.57;;;2.10;99.90;;;;;;6214836;23;20386;-73
2023/03/10 09:20:26;;;;;;;0.40;0.40;;;2.30;99.90;;;;;;6216657;23;20012;-72
2023/03/10 09:22:55;;;;;;;0.40;0.40;;;2.30;99.90;;;;;;6214955;23;20104;-72
2023/03/10 09:25:21;;;;;;;0.50;0.50;;;2.30;99.90;;;;;;6214712;23;20016;-72
2023/03/10 09:27:48;;;;;;;0.50;0.50;;;2.30;99.90;;;;;;6214709;23;20012;-72
2023/03/10 09:30:14;;;;;;;0.40;0.40;;;2.40;99.90;;;;;;6216201;23;20008;-71
2023/03/10 09:32:40;;;;;;;0.50;0.50;;;2.20;99.90;;;;;;6217237;23;20481;-70
2023/03/10 09:35:06;;;;;;;0.50;0.50;;;2.20;99.90;;;;;;6216554;23;20051;-70
2023/03/10 09:37:32;;;;;;;0.50;0.50;;;2.30;99.90;;;;;;6216669;23;20013;-70
2023/03/10 09:39:58;;;;;;;0.40;0.40;;;2.20;99.90;;;;;;6216495;23;20005;-67
2023/03/10 09:42:38;;;;;;;0.50;0.50;;;2.40;99.90;;;;;;6214646;23;20020;-67
2023/03/10 09:45:24;;;;;;;0.40;0.40;;;2.30;99.90;;;;;;6214709;23;20016;-67
2023/03/10 09:48:11;;;;;;;0.50;0.50;;;2.40;99.90;;;;;;6214811;23;20450;-67
2023/03/10 09:50:45;;;;;;;0.60;0.60;;;2.40;99.90;;;;;;6214530;23;20012;-67
2023/03/10 09:53:20;;;;;;;0.50;0.50;;;2.30;99.90;;;;;;6216576;23;20013;-67
2023/03/10 09:55:46;;;;;;;0.50;0.50;;;2.20;99.90;;;;;;6216354;23;20008;-67
2023/03/10 09:58:32;;;;;;;0.40;0.40;;;2.20;99.90;;;;;;6240183;23;20382;-67
2023/03/10 10:00:59;;;;;;;0.50;0.50;;;2.20;99.90;;;;;;6214810;23;20398;-76
2023/03/10 10:03:39;;;;;;;0.50;0.50;;;2.40;99.90;;;;;;6240091;23;20306;-69
2023/03/10 10:06:06;;;;;;;0.50;0.50;;;2.40;99.90;;;;;;6214442;23;20024;-69
2023/03/10 10:08:40;;;;;;;0.40;0.40;;;2.40;99.90;;;;;;6216246;23;20091;-69
2023/03/10 10:11:13;;;;;;;0.50;0.50;;;2.40;99.90;;;;;;6189628;23;20111;-70
2023/03/10 10:13:39;;;;;;;0.60;0.60;;;2.30;99.90;;;;;;6216405;23;20016;-70
2023/03/10 10:16:17;;;;;;;0.50;0.50;;;2.40;99.90;;;;;;6214381;23;20016;-70
2023/03/10 10:18:57;;;;;;;0.45;0.45;;;2.40;99.90;;;;;;6214424;23;20020;-71
2023/03/10 10:21:37;;;;;;;0.40;0.40;;;2.40;99.90;;;;;;6216461;23;20084;-71
2023/03/10 10:24:03;;;;;;;0.60;0.60;;;2.40;99.90;;;;;;6215024;23;20062;-71
2023/03/10 10:26:28;;;;;;;0.43;0.43;;;2.30;99.90;;;;;;6214351;23;20016;-71
2023/03/10 10:29:10;;;;;;;0.40;0.40;;;2.40;99.90;;;;;;6217646;23;20448;-71
2023/03/10 10:31:36;;;;;;;0.40;0.40;;;2.40;99.90;;;;;;6218375;23;20020;-70
2023/03/10 10:34:05;;;;;;;0.50;0.50;;;2.40;99.90;;;;;;6216366;23;20338;-70
2023/03/10 10:36:36;;;;;;;0.50;0.50;;;2.50;99.90;;;;;;6218290;23;20012;-70
2023/03/10 10:39:04;;;;;;;0.40;0.40;;;2.50;99.90;;;;;;6217462;23;20329;-70
2023/03/10 10:41:33;;;;;;;0.50;0.50;;;2.50;99.90;;;;;;6217920;23;20452;-70
2023/03/10 10:44:07;;;;;;;0.60;0.60;;;2.50;99.90;;;;;;6218167;23;20076;-70
2023/03/10 10:46:33;;;;;;;0.60;0.60;;;2.30;99.90;;;;;;6218149;23;20016;-70
2023/03/10 10:49:18;;;;;;;0.50;0.50;;;2.40;99.90;;;;;;6216401;23;20021;-70
2023/03/10 10:52:04;;;;;;;0.50;0.50;;;2.30;99.90;;;;;;6218167;23;20020;-71
2023/03/10 10:54:37;;;;;;;0.50;0.50;;;2.40;99.90;;;;;;6216191;23;20027;-70
2023/03/10 10:57:17;;;;;;;0.55;0.55;;;2.50;99.90;;;;;;6216214;23;20484;-70
2023/03/10 10:59:43;;;;;;;0.60;0.60;;;2.40;99.90;;;;;;6216186;23;20012;-75
2023/03/10 11:02:31;;;;;;;0.50;0.50;;;2.40;99.90;;;;;;6241898;23;20170;-69
2023/03/10 11:05:24;;;;;;;0.70;0.70;;;2.60;99.90;;;;;;6217959;23;20005;-71
2023/03/10 11:07:51;;;;;;;0.40;0.40;;;2.50;99.90;;;;;;6216491;23;20472;-70
2023/03/10 11:10:24;;;;;;;0.52;0.52;;;2.60;99.90;;;;;;6216112;23;20040;-71
2023/03/10 11:12:55;;;;;;;0.60;0.60;;;2.60;99.90;;;;;;6217086;23;20009;-70
2023/03/10 11:15:27;;;;;;;0.60;0.60;;;2.40;99.90;;;;;;6215911;23;20019;-70
2023/03/10 11:18:02;;;;;;;0.60;0.60;;;2.40;99.90;;;;;;6216024;23;20094;-70
2023/03/10 11:20:31;;;;;;;0.60;0.60;;;2.40;99.90;;;;;;6215977;23;20122;-71
2023/03/10 11:23:10;;;;;;;0.65;0.65;;;2.40;99.90;;;;;;6218109;23;20013;-72
2023/03/10 11:25:48;;;;;;;0.60;0.60;;;2.40;99.90;;;;;;6218014;23;20334;-72
2023/03/10 11:28:21;;;;;;;0.70;0.70;;;2.40;99.90;;;;;;6217997;23;20088;-72
2023/03/10 11:31:05;;;;;;;0.70;0.70;;;2.50;99.90;;;;;;6217629;23;20024;-72
2023/03/10 11:33:35;;;;;;;0.60;0.60;;;2.50;99.90;;;;;;6216089;23;20067;-70
2023/03/10 11:36:16;;;;;;;0.50;0.50;;;2.50;99.90;;;;;;6215930;23;20020;-70
2023/03/10 11:38:47;;;;;;;0.50;0.50;;;2.40;99.90;;;;;;6216123;23;20062;-70
2023/03/10 11:41:15;;;;;;;0.50;0.50;;;2.40;99.90;;;;;;6215756;23;20017;-71
2023/03/10 11:43:56;;;;;;;0.50;0.50;;;2.40;99.90;;;;;;6217899;23;20019;-71
2023/03/10 11:46:29;;;;;;;0.50;0.50;;;2.40;99.90;;;;;;6215827;23;20013;-72
2023/03/10 11:49:26;;;;;;;0.50;0.50;;;2.50;99.90;;;;;;6215674;23;20016;-75
2023/03/10 11:52:25;;;;;;;0.50;0.50;;;2.40;99.90;;;;;;6214225;23;20337;-74
2023/03/10 11:55:02;;;;;;;0.50;0.50;;;2.40;99.90;;;;;;6151488;23;20016;-75
2023/03/10 11:57:36;;;;;;;0.40;0.40;;;2.50;99.90;;;;;;6216680;23;20020;-76
2023/03/10 12:00:06;;;;;;;0.50;0.50;;;2.60;99.90;;;;;;6215681;23;20067;-75
2023/03/10 12:03:02;;;;;;;0.57;0.57;;;2.40;99.90;;;;;;6215683;23;20024;-75
2023/03/10 12:05:35;;;;;;;0.50;0.50;;;2.60;99.90;;;;;;6241177;23;20009;-74
2023/03/10 12:08:04;;;;;;;0.50;0.50;;;2.60;99.90;;;;;;6215477;23;20017;-74
2023/03/10 12:10:40;;;;;;;0.55;0.55;;;2.50;99.90;;;;;;6215511;23;20087;-78
2023/03/10 12:13:17;;;;;;;0.50;0.50;;;2.50;99.90;;;;;;6215573;23;20009;-78
2023/03/10 12:15:44;;;;;;;0.60;0.60;;;2.50;99.90;;;;;;6217369;23;20427;-70
2023/03/10 12:18:09;;;;;;;0.50;0.50;;;2.50;99.90;;;;;;6216902;23;20031;-71
2023/03/10 12:20:35;;;;;;;0.50;0.50;;;2.60;99.90;;;;;;6217334;23;20088;-71
2023/03/10 12:23:10;;;;;;;0.43;0.43;;;2.60;99.90;;;;;;6215406;23;20048;-71
2023/03/10 12:25:37;;;;;;;0.50;0.50;;;2.60;99.90;;;;;;6215431;23;20095;-71
2023/03/10 12:28:14;;;;;;;0.40;0.40;;;2.60;99.90;;;;;;6215224;23;20047;-70
2023/03/10 12:31:05;;;;;;;0.50;0.50;;;2.60;99.90;;;;;;6217122;23;20017;-71
2023/03/10 12:33:36;;;;;;;;;;;2.60;99.90;;;;;;6215992;23;20023;-71
2023/03/10 12:36:20;;;;;;;0.40;0.40;;;2.60;99.90;;;;;;6215261;23;19919;-71
2023/03/10 12:38:53;;;;;;;0.50;0.50;;;2.60;99.90;;;;;;6217240;23;20017;-71
2023/03/10 12:41:25;;;;;;;0.50;0.50;;;2.50;99.90;;;;;;6215200;23;20071;-71
2023/03/10 12:44:00;;;;;;;0.60;0.60;;;2.50;99.90;;;;;;6217115;23;20012;-72
2023/03/10 12:46:39;;;;;;;0.45;0.45;;;2.60;99.90;;;;;;6217031;23;20009;-70
2023/03/10 12:49:37;;;;;;;0.60;0.60;;;2.50;99.90;;;;;;6216913;23;20016;-71
2023/03/10 12:52:06;;;;;;;0.40;0.40;;;2.70;99.90;;;;;;6199303;23;20020;-67
2023/03/10 12:55:02;;;;;;;0.45;0.45;;;2.70;99.90;;;;;;6216970;23;20024;-78
2023/03/10 12:57:50;;;;;;;0.50;0.50;;;2.60;99.90;;;;;;6215571;23;20012;-78
2023/03/10 13:00:26;;;;;;;0.50;0.50;;;2.70;99.90;;;;;;6214918;23;20013;-79
2023/03/10 13:03:09;;;;;;;0.57;0.57;;;2.80;99.90;;;;;;6216962;23;20375;-78
2023/03/10 13:06:19;;;;;;;0.40;0.40;;;2.80;99.90;;;;;;6215097;23;20012;-78
2023/03/10 13:09:00;;;;;;;0.60;0.60;;;2.80;99.90;;;;;;6216744;23;20111;-78
2023/03/10 13:11:38;;;;;;;0.45;0.45;;;2.70;99.90;;;;;;6215667;23;20015;-78